Colfontaine, Belgium
Current Conditions -  °F | °C
As of 9:25 AM on Monday 20 Oct 2014 (Local Time) from EBCV Reporting Station
Overcast Overcast  
Wind Chill: 55°   Ceiling: 3100
Heat Index: 55°   Visibility: 6mi
Dew Point: 54°   Wind: 10mph
Humidity: 94%   Direction: 220°SW
Pressure: 30.09"   Gusts: NA
Location:  50.41°N, 3.86°E
Report Text: EBCV 200725Z AUTO 22009KT 9999 FEW024/// BKN031/// OVC036/// 13/12 Q1019 BLU
Loading
Personal Weather Stations






























Interactive Weather Map
Tropical Storm Tracking
New forecast layout! Learn more

10-Day Weather Forecast

Advertisements
Track Severe Weather on mobile